sensor_id;sensor_type;location;lat;lon;timestamp;P1;durP1;ratioP1;P2;durP2;ratioP2
34565;SDS011;20803;42.676;26.348;2024-02-04T00:00:14;16.03;;;8.07;;
34565;SDS011;20803;42.676;26.348;2024-02-04T00:02:40;11.97;;;7.60;;
34565;SDS011;20803;42.676;26.348;2024-02-04T00:05:05;12.43;;;7.67;;
34565;SDS011;20803;42.676;26.348;2024-02-04T00:07:31;13.53;;;7.90;;
34565;SDS011;20803;42.676;26.348;2024-02-04T00:09:57;12.10;;;7.73;;
34565;SDS011;20803;42.676;26.348;2024-02-04T00:12:22;11.73;;;7.63;;
34565;SDS011;20803;42.676;26.348;2024-02-04T00:14:48;12.60;;;7.73;;
34565;SDS011;20803;42.676;26.348;2024-02-04T00:17:15;11.47;;;7.53;;
34565;SDS011;20803;42.676;26.348;2024-02-04T00:19:41;15.80;;;9.13;;
34565;SDS011;20803;42.676;26.348;2024-02-04T00:22:06;14.10;;;7.83;;
34565;SDS011;20803;42.676;26.348;2024-02-04T00:24:32;15.43;;;8.33;;
34565;SDS011;20803;42.676;26.348;2024-02-04T00:26:58;10.67;;;7.70;;
34565;SDS011;20803;42.676;26.348;2024-02-04T00:29:23;13.27;;;8.03;;
34565;SDS011;20803;42.676;26.348;2024-02-04T00:31:49;11.47;;;7.40;;
34565;SDS011;20803;42.676;26.348;2024-02-04T00:34:14;16.43;;;8.73;;
34565;SDS011;20803;42.676;26.348;2024-02-04T00:36:40;13.47;;;7.97;;
34565;SDS011;20803;42.676;26.348;2024-02-04T00:39:05;14.30;;;8.33;;
34565;SDS011;20803;42.676;26.348;2024-02-04T00:41:32;13.17;;;8.17;;
34565;SDS011;20803;42.676;26.348;2024-02-04T00:43:58;16.60;;;8.77;;
34565;SDS011;20803;42.676;26.348;2024-02-04T00:46:24;12.87;;;8.20;;
34565;SDS011;20803;42.676;26.348;2024-02-04T00:48:49;13.47;;;7.90;;
34565;SDS011;20803;42.676;26.348;2024-02-04T00:51:14;12.50;;;8.53;;
34565;SDS011;20803;42.676;26.348;2024-02-04T00:53:42;12.30;;;9.63;;
34565;SDS011;20803;42.676;26.348;2024-02-04T00:56:08;14.37;;;8.07;;
34565;SDS011;20803;42.676;26.348;2024-02-04T00:58:35;14.47;;;8.77;;
34565;SDS011;20803;42.676;26.348;2024-02-04T01:01:01;12.57;;;8.10;;
34565;SDS011;20803;42.676;26.348;2024-02-04T01:03:26;13.00;;;8.87;;
34565;SDS011;20803;42.676;26.348;2024-02-04T01:05:52;14.07;;;8.40;;
34565;SDS011;20803;42.676;26.348;2024-02-04T01:08:17;13.47;;;8.50;;
34565;SDS011;20803;42.676;26.348;2024-02-04T01:10:43;13.87;;;8.70;;
34565;SDS011;20803;42.676;26.348;2024-02-04T01:13:08;14.57;;;9.07;;
34565;SDS011;20803;42.676;26.348;2024-02-04T01:15:34;11.10;;;8.37;;
34565;SDS011;20803;42.676;26.348;2024-02-04T01:17:59;12.47;;;8.50;;
34565;SDS011;20803;42.676;26.348;2024-02-04T01:20:25;16.57;;;8.77;;
34565;SDS011;20803;42.676;26.348;2024-02-04T01:22:50;11.07;;;7.80;;
34565;SDS011;20803;42.676;26.348;2024-02-04T01:25:16;12.67;;;7.90;;
34565;SDS011;20803;42.676;26.348;2024-02-04T01:27:41;14.30;;;7.47;;
34565;SDS011;20803;42.676;26.348;2024-02-04T01:30:07;12.17;;;8.60;;
34565;SDS011;20803;42.676;26.348;2024-02-04T01:32:33;10.30;;;7.37;;
34565;SDS011;20803;42.676;26.348;2024-02-04T01:34:58;10.67;;;6.57;;
34565;SDS011;20803;42.676;26.348;2024-02-04T01:37:23;12.73;;;7.77;;
34565;SDS011;20803;42.676;26.348;2024-02-04T01:39:49;11.33;;;7.70;;
34565;SDS011;20803;42.676;26.348;2024-02-04T01:42:15;13.43;;;8.27;;
34565;SDS011;20803;42.676;26.348;2024-02-04T01:44:40;12.13;;;8.00;;
34565;SDS011;20803;42.676;26.348;2024-02-04T01:47:07;14.83;;;8.90;;
34565;SDS011;20803;42.676;26.348;2024-02-04T01:49:32;14.07;;;8.30;;
34565;SDS011;20803;42.676;26.348;2024-02-04T01:51:58;14.40;;;8.47;;
34565;SDS011;20803;42.676;26.348;2024-02-04T01:54:24;14.30;;;8.27;;
34565;SDS011;20803;42.676;26.348;2024-02-04T01:56:50;11.93;;;8.13;;
34565;SDS011;20803;42.676;26.348;2024-02-04T01:59:21;11.20;;;7.97;;
34565;SDS011;20803;42.676;26.348;2024-02-04T02:01:55;12.60;;;8.03;;
34565;SDS011;20803;42.676;26.348;2024-02-04T02:04:21;13.17;;;8.33;;
34565;SDS011;20803;42.676;26.348;2024-02-04T02:06:46;12.70;;;8.97;;
34565;SDS011;20803;42.676;26.348;2024-02-04T02:09:13;14.47;;;8.73;;
34565;SDS011;20803;42.676;26.348;2024-02-04T02:11:42;15.17;;;8.80;;
34565;SDS011;20803;42.676;26.348;2024-02-04T02:14:13;12.43;;;8.80;;
34565;SDS011;20803;42.676;26.348;2024-02-04T02:16:41;16.23;;;9.07;;
34565;SDS011;20803;42.676;26.348;2024-02-04T02:21:59;11.87;;;7.83;;
34565;SDS011;20803;42.676;26.348;2024-02-04T02:27:04;12.73;;;7.63;;
34565;SDS011;20803;42.676;26.348;2024-02-04T02:29:31;12.07;;;8.03;;
34565;SDS011;20803;42.676;26.348;2024-02-04T02:31:57;12.07;;;8.17;;
34565;SDS011;20803;42.676;26.348;2024-02-04T02:34:24;11.27;;;7.50;;
34565;SDS011;20803;42.676;26.348;2024-02-04T02:39:52;11.27;;;6.47;;
34565;SDS011;20803;42.676;26.348;2024-02-04T02:42:20;11.40;;;7.40;;
34565;SDS011;20803;42.676;26.348;2024-02-04T02:44:48;11.53;;;7.47;;
34565;SDS011;20803;42.676;26.348;2024-02-04T02:47:15;12.13;;;7.47;;
34565;SDS011;20803;42.676;26.348;2024-02-04T02:49:42;11.73;;;7.43;;
34565;SDS011;20803;42.676;26.348;2024-02-04T02:52:07;12.87;;;6.97;;
34565;SDS011;20803;42.676;26.348;2024-02-04T02:54:33;10.93;;;7.20;;
34565;SDS011;20803;42.676;26.348;2024-02-04T02:56:58;13.83;;;8.30;;
34565;SDS011;20803;42.676;26.348;2024-02-04T02:59:24;13.77;;;8.10;;
34565;SDS011;20803;42.676;26.348;2024-02-04T03:01:49;13.03;;;8.07;;
34565;SDS011;20803;42.676;26.348;2024-02-04T03:04:15;12.73;;;7.93;;
34565;SDS011;20803;42.676;26.348;2024-02-04T03:06:40;12.30;;;8.67;;
34565;SDS011;20803;42.676;26.348;2024-02-04T03:09:06;11.70;;;8.40;;
34565;SDS011;20803;42.676;26.348;2024-02-04T03:11:31;11.27;;;8.00;;
34565;SDS011;20803;42.676;26.348;2024-02-04T03:13:57;13.70;;;8.33;;
34565;SDS011;20803;42.676;26.348;2024-02-04T03:16:22;14.00;;;7.93;;
34565;SDS011;20803;42.676;26.348;2024-02-04T03:18:48;9.93;;;7.43;;
34565;SDS011;20803;42.676;26.348;2024-02-04T03:21:14;12.73;;;7.60;;
34565;SDS011;20803;42.676;26.348;2024-02-04T03:23:43;9.87;;;7.37;;
34565;SDS011;20803;42.676;26.348;2024-02-04T03:26:10;15.17;;;8.43;;
34565;SDS011;20803;42.676;26.348;2024-02-04T03:28:36;13.47;;;8.30;;
34565;SDS011;20803;42.676;26.348;2024-02-04T03:31:02;12.53;;;7.67;;
34565;SDS011;20803;42.676;26.348;2024-02-04T03:33:28;15.27;;;7.57;;
34565;SDS011;20803;42.676;26.348;2024-02-04T03:35:54;15.17;;;7.50;;
34565;SDS011;20803;42.676;26.348;2024-02-04T03:38:19;13.50;;;7.57;;
34565;SDS011;20803;42.676;26.348;2024-02-04T03:40:45;16.03;;;8.47;;
34565;SDS011;20803;42.676;26.348;2024-02-04T03:43:11;11.33;;;6.97;;
34565;SDS011;20803;42.676;26.348;2024-02-04T03:45:36;13.23;;;8.00;;
34565;SDS011;20803;42.676;26.348;2024-02-04T03:48:02;11.97;;;8.47;;
34565;SDS011;20803;42.676;26.348;2024-02-04T03:50:28;16.03;;;8.60;;
34565;SDS011;20803;42.676;26.348;2024-02-04T03:52:53;11.87;;;7.73;;
34565;SDS011;20803;42.676;26.348;2024-02-04T03:55:19;11.13;;;7.47;;
34565;SDS011;20803;42.676;26.348;2024-02-04T03:57:44;10.63;;;7.60;;
34565;SDS011;20803;42.676;26.348;2024-02-04T04:00:10;11.57;;;7.80;;
34565;SDS011;20803;42.676;26.348;2024-02-04T04:02:36;12.93;;;8.03;;
34565;SDS011;20803;42.676;26.348;2024-02-04T04:05:02;15.43;;;7.43;;
34565;SDS011;20803;42.676;26.348;2024-02-04T04:07:27;13.63;;;7.70;;
34565;SDS011;20803;42.676;26.348;2024-02-04T04:09:53;12.37;;;7.43;;
34565;SDS011;20803;42.676;26.348;2024-02-04T04:12:19;10.43;;;6.43;;
34565;SDS011;20803;42.676;26.348;2024-02-04T04:14:44;16.57;;;8.10;;
34565;SDS011;20803;42.676;26.348;2024-02-04T04:17:10;12.93;;;8.07;;
34565;SDS011;20803;42.676;26.348;2024-02-04T04:19:35;12.50;;;7.30;;
34565;SDS011;20803;42.676;26.348;2024-02-04T04:22:02;13.23;;;6.87;;
34565;SDS011;20803;42.676;26.348;2024-02-04T04:24:28;11.70;;;7.73;;
34565;SDS011;20803;42.676;26.348;2024-02-04T04:26:54;16.27;;;8.23;;
34565;SDS011;20803;42.676;26.348;2024-02-04T04:29:20;14.63;;;8.67;;
34565;SDS011;20803;42.676;26.348;2024-02-04T04:31:45;32.10;;;16.50;;
34565;SDS011;20803;42.676;26.348;2024-02-04T04:34:11;36.43;;;19.43;;
34565;SDS011;20803;42.676;26.348;2024-02-04T04:36:37;32.13;;;15.70;;
34565;SDS011;20803;42.676;26.348;2024-02-04T04:39:02;24.07;;;12.80;;
34565;SDS011;20803;42.676;26.348;2024-02-04T04:41:28;18.30;;;8.37;;
34565;SDS011;20803;42.676;26.348;2024-02-04T04:43:53;14.47;;;8.17;;
34565;SDS011;20803;42.676;26.348;2024-02-04T04:46:19;12.43;;;7.90;;
34565;SDS011;20803;42.676;26.348;2024-02-04T04:48:45;11.33;;;7.83;;
34565;SDS011;20803;42.676;26.348;2024-02-04T04:51:11;12.60;;;8.27;;
34565;SDS011;20803;42.676;26.348;2024-02-04T04:53:37;13.23;;;8.07;;
34565;SDS011;20803;42.676;26.348;2024-02-04T04:56:03;12.03;;;8.43;;
34565;SDS011;20803;42.676;26.348;2024-02-04T04:58:29;13.73;;;8.63;;
34565;SDS011;20803;42.676;26.348;2024-02-04T05:00:54;18.37;;;8.60;;
34565;SDS011;20803;42.676;26.348;2024-02-04T05:03:20;13.80;;;9.33;;
34565;SDS011;20803;42.676;26.348;2024-02-04T05:05:45;14.17;;;9.20;;
34565;SDS011;20803;42.676;26.348;2024-02-04T05:08:12;16.50;;;8.90;;
34565;SDS011;20803;42.676;26.348;2024-02-04T05:10:40;14.30;;;8.17;;
34565;SDS011;20803;42.676;26.348;2024-02-04T05:13:05;13.20;;;8.10;;
34565;SDS011;20803;42.676;26.348;2024-02-04T05:15:30;15.33;;;9.50;;
34565;SDS011;20803;42.676;26.348;2024-02-04T05:17:56;14.57;;;8.90;;
34565;SDS011;20803;42.676;26.348;2024-02-04T05:20:21;14.27;;;8.63;;
34565;SDS011;20803;42.676;26.348;2024-02-04T05:22:47;19.20;;;8.97;;
34565;SDS011;20803;42.676;26.348;2024-02-04T05:25:13;16.33;;;10.13;;
34565;SDS011;20803;42.676;26.348;2024-02-04T05:27:39;19.20;;;11.30;;
34565;SDS011;20803;42.676;26.348;2024-02-04T05:30:04;15.83;;;9.80;;
34565;SDS011;20803;42.676;26.348;2024-02-04T05:32:30;12.17;;;8.50;;
34565;SDS011;20803;42.676;26.348;2024-02-04T05:34:56;12.50;;;8.77;;
34565;SDS011;20803;42.676;26.348;2024-02-04T05:37:21;11.10;;;7.37;;
34565;SDS011;20803;42.676;26.348;2024-02-04T05:39:47;12.73;;;8.57;;
34565;SDS011;20803;42.676;26.348;2024-02-04T05:42:12;12.43;;;7.73;;
34565;SDS011;20803;42.676;26.348;2024-02-04T05:44:38;12.13;;;7.97;;
34565;SDS011;20803;42.676;26.348;2024-02-04T05:47:03;15.83;;;7.47;;
34565;SDS011;20803;42.676;26.348;2024-02-04T05:49:29;12.33;;;7.80;;
34565;SDS011;20803;42.676;26.348;2024-02-04T05:51:54;12.63;;;8.13;;
34565;SDS011;20803;42.676;26.348;2024-02-04T05:54:20;12.17;;;7.77;;
34565;SDS011;20803;42.676;26.348;2024-02-04T05:56:46;13.33;;;8.03;;
34565;SDS011;20803;42.676;26.348;2024-02-04T05:59:11;15.17;;;8.37;;
34565;SDS011;20803;42.676;26.348;2024-02-04T06:01:37;13.30;;;7.53;;
34565;SDS011;20803;42.676;26.348;2024-02-04T06:04:02;10.57;;;7.70;;
34565;SDS011;20803;42.676;26.348;2024-02-04T06:06:28;12.07;;;7.87;;
34565;SDS011;20803;42.676;26.348;2024-02-04T06:08:54;13.70;;;8.77;;
34565;SDS011;20803;42.676;26.348;2024-02-04T06:11:19;12.67;;;8.83;;
34565;SDS011;20803;42.676;26.348;2024-02-04T06:13:45;19.17;;;10.67;;
34565;SDS011;20803;42.676;26.348;2024-02-04T06:16:10;13.60;;;10.20;;
34565;SDS011;20803;42.676;26.348;2024-02-04T06:18:39;13.77;;;8.90;;
34565;SDS011;20803;42.676;26.348;2024-02-04T06:21:05;13.20;;;8.07;;
34565;SDS011;20803;42.676;26.348;2024-02-04T06:23:31;15.27;;;9.57;;
34565;SDS011;20803;42.676;26.348;2024-02-04T06:25:57;16.33;;;10.13;;
34565;SDS011;20803;42.676;26.348;2024-02-04T06:28:22;17.60;;;9.07;;
34565;SDS011;20803;42.676;26.348;2024-02-04T06:30:48;15.77;;;8.37;;
34565;SDS011;20803;42.676;26.348;2024-02-04T06:33:14;16.10;;;8.53;;
34565;SDS011;20803;42.676;26.348;2024-02-04T06:35:39;16.27;;;9.20;;
34565;SDS011;20803;42.676;26.348;2024-02-04T06:38:05;37.07;;;21.03;;
34565;SDS011;20803;42.676;26.348;2024-02-04T06:40:31;28.60;;;17.57;;
34565;SDS011;20803;42.676;26.348;2024-02-04T06:42:56;25.50;;;14.80;;
34565;SDS011;20803;42.676;26.348;2024-02-04T06:45:22;23.50;;;14.57;;
34565;SDS011;20803;42.676;26.348;2024-02-04T06:47:47;22.97;;;12.50;;
34565;SDS011;20803;42.676;26.348;2024-02-04T06:50:13;14.13;;;8.40;;
34565;SDS011;20803;42.676;26.348;2024-02-04T06:52:45;16.33;;;9.87;;
34565;SDS011;20803;42.676;26.348;2024-02-04T06:55:11;13.97;;;8.77;;
34565;SDS011;20803;42.676;26.348;2024-02-04T06:57:37;18.40;;;9.80;;
34565;SDS011;20803;42.676;26.348;2024-02-04T07:00:03;14.83;;;9.23;;
34565;SDS011;20803;42.676;26.348;2024-02-04T07:02:33;15.30;;;9.60;;
34565;SDS011;20803;42.676;26.348;2024-02-04T07:04:59;16.13;;;9.43;;
34565;SDS011;20803;42.676;26.348;2024-02-04T07:07:25;14.00;;;9.90;;
34565;SDS011;20803;42.676;26.348;2024-02-04T07:09:50;13.20;;;8.57;;
34565;SDS011;20803;42.676;26.348;2024-02-04T07:12:16;15.37;;;9.60;;
34565;SDS011;20803;42.676;26.348;2024-02-04T07:14:41;14.70;;;10.03;;
34565;SDS011;20803;42.676;26.348;2024-02-04T07:17:07;15.67;;;9.37;;
34565;SDS011;20803;42.676;26.348;2024-02-04T07:19:32;16.40;;;9.50;;
34565;SDS011;20803;42.676;26.348;2024-02-04T07:21:58;15.00;;;8.77;;
34565;SDS011;20803;42.676;26.348;2024-02-04T07:24:23;16.13;;;8.30;;
34565;SDS011;20803;42.676;26.348;2024-02-04T07:26:49;17.27;;;9.60;;
34565;SDS011;20803;42.676;26.348;2024-02-04T07:29:14;14.07;;;8.43;;
34565;SDS011;20803;42.676;26.348;2024-02-04T07:31:40;6.53;;;5.13;;
34565;SDS011;20803;42.676;26.348;2024-02-04T07:34:05;5.73;;;4.33;;
34565;SDS011;20803;42.676;26.348;2024-02-04T07:36:31;4.03;;;3.43;;
34565;SDS011;20803;42.676;26.348;2024-02-04T07:38:56;4.07;;;3.43;;
34565;SDS011;20803;42.676;26.348;2024-02-04T07:41:22;5.53;;;4.10;;
34565;SDS011;20803;42.676;26.348;2024-02-04T07:43:48;3.43;;;3.10;;
34565;SDS011;20803;42.676;26.348;2024-02-04T07:46:14;5.27;;;3.10;;
34565;SDS011;20803;42.676;26.348;2024-02-04T07:48:39;3.67;;;2.77;;
34565;SDS011;20803;42.676;26.348;2024-02-04T07:51:05;3.37;;;2.80;;
34565;SDS011;20803;42.676;26.348;2024-02-04T07:53:32;4.10;;;3.00;;
34565;SDS011;20803;42.676;26.348;2024-02-04T07:55:57;4.47;;;3.13;;
34565;SDS011;20803;42.676;26.348;2024-02-04T07:58:23;8.83;;;6.53;;
34565;SDS011;20803;42.676;26.348;2024-02-04T08:00:48;4.53;;;3.90;;
34565;SDS011;20803;42.676;26.348;2024-02-04T08:03:14;7.23;;;5.10;;
34565;SDS011;20803;42.676;26.348;2024-02-04T08:05:39;4.80;;;3.73;;
34565;SDS011;20803;42.676;26.348;2024-02-04T08:08:05;3.43;;;3.03;;
34565;SDS011;20803;42.676;26.348;2024-02-04T08:10:30;3.47;;;3.17;;
34565;SDS011;20803;42.676;26.348;2024-02-04T08:12:56;4.30;;;3.90;;
34565;SDS011;20803;42.676;26.348;2024-02-04T08:15:22;4.27;;;3.03;;
34565;SDS011;20803;42.676;26.348;2024-02-04T08:17:48;3.67;;;2.47;;
34565;SDS011;20803;42.676;26.348;2024-02-04T08:20:13;4.23;;;3.50;;
34565;SDS011;20803;42.676;26.348;2024-02-04T08:22:39;3.37;;;2.80;;
34565;SDS011;20803;42.676;26.348;2024-02-04T08:25:04;4.40;;;3.47;;
34565;SDS011;20803;42.676;26.348;2024-02-04T08:27:30;3.97;;;3.20;;
34565;SDS011;20803;42.676;26.348;2024-02-04T08:29:56;3.47;;;2.90;;
34565;SDS011;20803;42.676;26.348;2024-02-04T08:32:22;4.50;;;3.70;;
34565;SDS011;20803;42.676;26.348;2024-02-04T08:34:47;3.60;;;3.03;;
34565;SDS011;20803;42.676;26.348;2024-02-04T08:37:13;3.63;;;3.10;;
34565;SDS011;20803;42.676;26.348;2024-02-04T08:39:38;3.40;;;2.97;;
34565;SDS011;20803;42.676;26.348;2024-02-04T08:42:04;3.83;;;3.10;;
34565;SDS011;20803;42.676;26.348;2024-02-04T08:44:30;4.87;;;3.40;;
34565;SDS011;20803;42.676;26.348;2024-02-04T08:46:55;5.17;;;3.40;;
34565;SDS011;20803;42.676;26.348;2024-02-04T08:49:21;4.40;;;2.90;;
34565;SDS011;20803;42.676;26.348;2024-02-04T08:51:47;3.83;;;3.10;;
34565;SDS011;20803;42.676;26.348;2024-02-04T08:54:12;4.40;;;3.77;;
34565;SDS011;20803;42.676;26.348;2024-02-04T08:56:37;3.70;;;3.33;;
34565;SDS011;20803;42.676;26.348;2024-02-04T08:59:03;3.97;;;3.13;;
34565;SDS011;20803;42.676;26.348;2024-02-04T09:01:31;5.13;;;3.87;;
34565;SDS011;20803;42.676;26.348;2024-02-04T09:03:56;4.77;;;3.53;;
34565;SDS011;20803;42.676;26.348;2024-02-04T09:06:22;3.80;;;3.10;;
34565;SDS011;20803;42.676;26.348;2024-02-04T09:08:48;3.73;;;3.10;;
34565;SDS011;20803;42.676;26.348;2024-02-04T09:11:13;5.63;;;4.17;;
34565;SDS011;20803;42.676;26.348;2024-02-04T09:13:44;4.03;;;3.60;;
34565;SDS011;20803;42.676;26.348;2024-02-04T09:16:10;7.03;;;3.70;;
34565;SDS011;20803;42.676;26.348;2024-02-04T09:18:36;5.17;;;4.10;;
34565;SDS011;20803;42.676;26.348;2024-02-04T09:21:01;4.07;;;3.53;;
34565;SDS011;20803;42.676;26.348;2024-02-04T09:23:27;5.03;;;3.47;;
34565;SDS011;20803;42.676;26.348;2024-02-04T09:25:53;3.77;;;3.37;;
34565;SDS011;20803;42.676;26.348;2024-02-04T09:28:18;4.37;;;3.70;;
34565;SDS011;20803;42.676;26.348;2024-02-04T09:30:44;5.67;;;3.90;;
34565;SDS011;20803;42.676;26.348;2024-02-04T09:33:09;4.10;;;3.63;;
34565;SDS011;20803;42.676;26.348;2024-02-04T09:35:35;3.73;;;3.33;;
34565;SDS011;20803;42.676;26.348;2024-02-04T09:38:00;4.10;;;3.37;;
34565;SDS011;20803;42.676;26.348;2024-02-04T09:40:26;3.70;;;3.30;;
34565;SDS011;20803;42.676;26.348;2024-02-04T09:42:51;5.47;;;3.37;;
34565;SDS011;20803;42.676;26.348;2024-02-04T09:45:17;5.37;;;3.40;;
34565;SDS011;20803;42.676;26.348;2024-02-04T09:47:44;5.50;;;3.73;;
34565;SDS011;20803;42.676;26.348;2024-02-04T09:50:10;4.43;;;3.70;;
34565;SDS011;20803;42.676;26.348;2024-02-04T09:52:38;5.20;;;3.33;;
34565;SDS011;20803;42.676;26.348;2024-02-04T09:55:08;4.10;;;3.33;;
34565;SDS011;20803;42.676;26.348;2024-02-04T09:57:35;5.87;;;3.60;;
34565;SDS011;20803;42.676;26.348;2024-02-04T10:00:04;4.80;;;3.77;;
34565;SDS011;20803;42.676;26.348;2024-02-04T10:02:30;5.43;;;4.20;;
34565;SDS011;20803;42.676;26.348;2024-02-04T10:04:57;4.83;;;3.97;;
34565;SDS011;20803;42.676;26.348;2024-02-04T10:07:22;5.37;;;4.30;;
34565;SDS011;20803;42.676;26.348;2024-02-04T10:09:49;7.10;;;4.40;;
34565;SDS011;20803;42.676;26.348;2024-02-04T10:12:15;4.97;;;4.07;;
34565;SDS011;20803;42.676;26.348;2024-02-04T10:14:41;5.00;;;4.07;;
34565;SDS011;20803;42.676;26.348;2024-02-04T10:17:07;3.77;;;3.30;;
34565;SDS011;20803;42.676;26.348;2024-02-04T10:19:32;5.80;;;3.50;;
34565;SDS011;20803;42.676;26.348;2024-02-04T10:21:59;4.63;;;3.70;;
34565;SDS011;20803;42.676;26.348;2024-02-04T10:24:25;3.57;;;3.20;;
34565;SDS011;20803;42.676;26.348;2024-02-04T10:26:51;4.23;;;3.40;;
34565;SDS011;20803;42.676;26.348;2024-02-04T10:29:17;4.97;;;3.30;;
34565;SDS011;20803;42.676;26.348;2024-02-04T10:31:43;4.03;;;3.63;;
34565;SDS011;20803;42.676;26.348;2024-02-04T10:34:11;4.63;;;3.57;;
34565;SDS011;20803;42.676;26.348;2024-02-04T10:36:37;5.50;;;4.20;;
34565;SDS011;20803;42.676;26.348;2024-02-04T10:39:03;6.20;;;4.63;;
34565;SDS011;20803;42.676;26.348;2024-02-04T10:41:29;4.50;;;3.80;;
34565;SDS011;20803;42.676;26.348;2024-02-04T10:43:56;5.33;;;3.60;;
34565;SDS011;20803;42.676;26.348;2024-02-04T10:46:23;5.17;;;4.13;;
34565;SDS011;20803;42.676;26.348;2024-02-04T10:48:55;5.77;;;3.73;;
34565;SDS011;20803;42.676;26.348;2024-02-04T10:51:25;5.43;;;3.37;;
34565;SDS011;20803;42.676;26.348;2024-02-04T10:53:53;5.00;;;4.33;;
34565;SDS011;20803;42.676;26.348;2024-02-04T10:58:56;4.37;;;3.47;;
34565;SDS011;20803;42.676;26.348;2024-02-04T11:01:23;6.00;;;3.80;;
34565;SDS011;20803;42.676;26.348;2024-02-04T11:03:50;4.53;;;3.23;;
34565;SDS011;20803;42.676;26.348;2024-02-04T11:06:18;5.17;;;3.93;;
34565;SDS011;20803;42.676;26.348;2024-02-04T11:08:45;4.97;;;3.73;;
34565;SDS011;20803;42.676;26.348;2024-02-04T11:11:12;4.70;;;4.20;;
34565;SDS011;20803;42.676;26.348;2024-02-04T11:13:37;5.47;;;4.10;;
34565;SDS011;20803;42.676;26.348;2024-02-04T11:16:08;4.20;;;3.53;;
34565;SDS011;20803;42.676;26.348;2024-02-04T11:27:12;38.93;;;18.07;;
34565;SDS011;20803;42.676;26.348;2024-02-04T11:29:41;36.57;;;18.63;;
34565;SDS011;20803;42.676;26.348;2024-02-04T11:32:06;20.80;;;13.47;;
34565;SDS011;20803;42.676;26.348;2024-02-04T11:34:32;16.77;;;10.63;;
34565;SDS011;20803;42.676;26.348;2024-02-04T11:36:58;13.40;;;9.97;;
34565;SDS011;20803;42.676;26.348;2024-02-04T11:39:24;7.07;;;5.80;;
34565;SDS011;20803;42.676;26.348;2024-02-04T11:41:50;9.73;;;6.80;;
34565;SDS011;20803;42.676;26.348;2024-02-04T11:44:22;9.67;;;6.30;;
34565;SDS011;20803;42.676;26.348;2024-02-04T11:46:52;7.40;;;5.83;;
34565;SDS011;20803;42.676;26.348;2024-02-04T11:49:20;10.50;;;6.00;;
34565;SDS011;20803;42.676;26.348;2024-02-04T11:51:50;9.27;;;6.93;;
34565;SDS011;20803;42.676;26.348;2024-02-04T11:54:17;14.47;;;8.50;;
34565;SDS011;20803;42.676;26.348;2024-02-04T11:56:50;12.37;;;8.90;;
34565;SDS011;20803;42.676;26.348;2024-02-04T11:59:20;13.37;;;9.30;;
34565;SDS011;20803;42.676;26.348;2024-02-04T12:01:47;11.40;;;9.00;;
34565;SDS011;20803;42.676;26.348;2024-02-04T12:04:13;15.10;;;10.03;;
34565;SDS011;20803;42.676;26.348;2024-02-04T12:06:41;11.77;;;8.97;;
34565;SDS011;20803;42.676;26.348;2024-02-04T12:09:10;15.27;;;9.83;;
34565;SDS011;20803;42.676;26.348;2024-02-04T12:11:36;14.53;;;9.23;;
34565;SDS011;20803;42.676;26.348;2024-02-04T12:14:06;12.37;;;8.17;;
34565;SDS011;20803;42.676;26.348;2024-02-04T12:16:33;10.57;;;7.20;;
34565;SDS011;20803;42.676;26.348;2024-02-04T12:19:00;7.97;;;6.60;;
34565;SDS011;20803;42.676;26.348;2024-02-04T12:21:28;11.60;;;7.83;;
34565;SDS011;20803;42.676;26.348;2024-02-04T12:23:54;19.17;;;13.03;;
34565;SDS011;20803;42.676;26.348;2024-02-04T12:26:20;28.00;;;21.57;;
34565;SDS011;20803;42.676;26.348;2024-02-04T12:28:48;29.93;;;20.93;;
34565;SDS011;20803;42.676;26.348;2024-02-04T12:31:18;28.07;;;20.30;;
34565;SDS011;20803;42.676;26.348;2024-02-04T12:33:53;30.47;;;22.53;;
34565;SDS011;20803;42.676;26.348;2024-02-04T12:36:32;24.17;;;19.63;;
34565;SDS011;20803;42.676;26.348;2024-02-04T12:38:59;28.83;;;20.90;;
34565;SDS011;20803;42.676;26.348;2024-02-04T12:41:26;41.87;;;20.10;;
34565;SDS011;20803;42.676;26.348;2024-02-04T12:43:53;27.13;;;18.17;;
34565;SDS011;20803;42.676;26.348;2024-02-04T12:46:20;37.53;;;24.10;;
34565;SDS011;20803;42.676;26.348;2024-02-04T12:48:53;42.67;;;21.47;;
34565;SDS011;20803;42.676;26.348;2024-02-04T12:51:29;22.10;;;11.10;;
34565;SDS011;20803;42.676;26.348;2024-02-04T12:54:05;15.17;;;10.97;;
34565;SDS011;20803;42.676;26.348;2024-02-04T12:56:49;16.60;;;10.57;;
34565;SDS011;20803;42.676;26.348;2024-02-04T12:59:26;9.33;;;6.43;;
34565;SDS011;20803;42.676;26.348;2024-02-04T13:01:56;11.43;;;7.80;;
34565;SDS011;20803;42.676;26.348;2024-02-04T13:04:23;10.80;;;7.57;;
34565;SDS011;20803;42.676;26.348;2024-02-04T13:06:48;14.37;;;6.80;;
34565;SDS011;20803;42.676;26.348;2024-02-04T13:09:15;19.77;;;12.67;;
34565;SDS011;20803;42.676;26.348;2024-02-04T13:11:41;12.90;;;9.03;;
34565;SDS011;20803;42.676;26.348;2024-02-04T13:14:10;11.07;;;8.00;;
34565;SDS011;20803;42.676;26.348;2024-02-04T13:16:35;12.70;;;9.33;;
34565;SDS011;20803;42.676;26.348;2024-02-04T13:19:02;12.50;;;9.93;;
34565;SDS011;20803;42.676;26.348;2024-02-04T13:21:29;11.53;;;8.07;;
34565;SDS011;20803;42.676;26.348;2024-02-04T13:23:54;8.80;;;6.50;;
34565;SDS011;20803;42.676;26.348;2024-02-04T13:26:20;9.73;;;7.03;;
34565;SDS011;20803;42.676;26.348;2024-02-04T13:28:46;7.10;;;5.80;;
34565;SDS011;20803;42.676;26.348;2024-02-04T13:31:12;7.33;;;5.30;;
34565;SDS011;20803;42.676;26.348;2024-02-04T13:33:38;9.27;;;7.27;;
34565;SDS011;20803;42.676;26.348;2024-02-04T13:36:05;10.50;;;7.17;;
34565;SDS011;20803;42.676;26.348;2024-02-04T13:38:32;10.37;;;8.07;;
34565;SDS011;20803;42.676;26.348;2024-02-04T13:40:57;16.40;;;10.20;;
34565;SDS011;20803;42.676;26.348;2024-02-04T13:43:23;13.30;;;10.87;;
34565;SDS011;20803;42.676;26.348;2024-02-04T13:45:48;12.37;;;7.83;;
34565;SDS011;20803;42.676;26.348;2024-02-04T13:48:14;11.67;;;7.70;;
34565;SDS011;20803;42.676;26.348;2024-02-04T13:50:39;11.83;;;7.50;;
34565;SDS011;20803;42.676;26.348;2024-02-04T13:53:05;9.03;;;7.20;;
34565;SDS011;20803;42.676;26.348;2024-02-04T13:55:30;8.07;;;6.97;;
34565;SDS011;20803;42.676;26.348;2024-02-04T13:57:56;8.53;;;5.20;;
34565;SDS011;20803;42.676;26.348;2024-02-04T14:00:21;6.80;;;4.90;;
34565;SDS011;20803;42.676;26.348;2024-02-04T14:02:47;4.67;;;3.07;;
34565;SDS011;20803;42.676;26.348;2024-02-04T14:05:12;3.43;;;2.67;;
34565;SDS011;20803;42.676;26.348;2024-02-04T14:07:38;3.33;;;2.60;;
34565;SDS011;20803;42.676;26.348;2024-02-04T14:10:04;3.00;;;2.70;;
34565;SDS011;20803;42.676;26.348;2024-02-04T14:12:30;5.13;;;3.20;;
34565;SDS011;20803;42.676;26.348;2024-02-04T14:14:56;4.93;;;3.70;;
34565;SDS011;20803;42.676;26.348;2024-02-04T14:17:22;4.67;;;3.60;;
34565;SDS011;20803;42.676;26.348;2024-02-04T14:19:48;5.73;;;3.80;;
34565;SDS011;20803;42.676;26.348;2024-02-04T14:22:16;5.07;;;3.80;;
34565;SDS011;20803;42.676;26.348;2024-02-04T14:24:43;6.57;;;4.27;;
34565;SDS011;20803;42.676;26.348;2024-02-04T14:27:10;5.70;;;4.23;;
34565;SDS011;20803;42.676;26.348;2024-02-04T14:29:36;6.13;;;4.30;;
34565;SDS011;20803;42.676;26.348;2024-02-04T14:32:01;5.93;;;4.70;;
34565;SDS011;20803;42.676;26.348;2024-02-04T14:34:27;5.03;;;4.20;;
34565;SDS011;20803;42.676;26.348;2024-02-04T14:36:53;5.87;;;4.33;;
34565;SDS011;20803;42.676;26.348;2024-02-04T14:39:19;6.00;;;4.90;;